sensor_id;sensor_type;location;lat;lon;timestamp;P1;durP1;ratioP1;P2;durP2;ratioP2
53389;SDS011;39288;42.970;1.524;2022-10-16T00:00:18;4.25;;;2.65;;
53389;SDS011;39288;42.970;1.524;2022-10-16T00:01:20;4.15;;;2.80;;
53389;SDS011;39288;42.970;1.524;2022-10-16T00:02:22;3.60;;;2.97;;
53389;SDS011;39288;42.970;1.524;2022-10-16T00:03:29;8.23;;;3.20;;
53389;SDS011;39288;42.970;1.524;2022-10-16T00:04:30;5.93;;;3.00;;
53389;SDS011;39288;42.970;1.524;2022-10-16T00:05:31;3.92;;;2.55;;
53389;SDS011;39288;42.970;1.524;2022-10-16T00:06:32;4.07;;;2.50;;
53389;SDS011;39288;42.970;1.524;2022-10-16T00:07:33;6.68;;;2.92;;
53389;SDS011;39288;42.970;1.524;2022-10-16T00:08:34;5.57;;;2.30;;
53389;SDS011;39288;42.970;1.524;2022-10-16T00:09:35;8.43;;;3.08;;
53389;SDS011;39288;42.970;1.524;2022-10-16T00:10:36;5.47;;;2.30;;
53389;SDS011;39288;42.970;1.524;2022-10-16T00:11:37;4.27;;;2.60;;
53389;SDS011;39288;42.970;1.524;2022-10-16T00:12:38;10.00;;;3.53;;
53389;SDS011;39288;42.970;1.524;2022-10-16T00:13:39;4.03;;;2.50;;
53389;SDS011;39288;42.970;1.524;2022-10-16T00:14:41;6.75;;;3.10;;
53389;SDS011;39288;42.970;1.524;2022-10-16T00:15:43;4.15;;;2.78;;
53389;SDS011;39288;42.970;1.524;2022-10-16T00:16:44;7.90;;;2.43;;
53389;SDS011;39288;42.970;1.524;2022-10-16T00:17:44;3.13;;;2.10;;
53389;SDS011;39288;42.970;1.524;2022-10-16T00:18:45;4.70;;;2.70;;
53389;SDS011;39288;42.970;1.524;2022-10-16T00:19:45;5.87;;;2.90;;
53389;SDS011;39288;42.970;1.524;2022-10-16T00:20:46;4.43;;;2.40;;
53389;SDS011;39288;42.970;1.524;2022-10-16T00:21:46;4.60;;;3.13;;
53389;SDS011;39288;42.970;1.524;2022-10-16T00:22:47;2.80;;;2.03;;
53389;SDS011;39288;42.970;1.524;2022-10-16T00:23:50;6.30;;;2.53;;
53389;SDS011;39288;42.970;1.524;2022-10-16T00:24:51;3.97;;;2.47;;
53389;SDS011;39288;42.970;1.524;2022-10-16T00:25:55;3.80;;;2.50;;
53389;SDS011;39288;42.970;1.524;2022-10-16T00:26:57;4.65;;;2.97;;
53389;SDS011;39288;42.970;1.524;2022-10-16T00:27:58;5.00;;;2.43;;
53389;SDS011;39288;42.970;1.524;2022-10-16T00:28:59;4.63;;;2.40;;
53389;SDS011;39288;42.970;1.524;2022-10-16T00:30:00;3.17;;;2.53;;
53389;SDS011;39288;42.970;1.524;2022-10-16T00:31:05;3.47;;;2.70;;
53389;SDS011;39288;42.970;1.524;2022-10-16T00:32:06;5.50;;;2.58;;
53389;SDS011;39288;42.970;1.524;2022-10-16T00:33:06;5.10;;;2.80;;
53389;SDS011;39288;42.970;1.524;2022-10-16T00:34:07;5.47;;;2.80;;
53389;SDS011;39288;42.970;1.524;2022-10-16T00:35:07;5.07;;;2.87;;
53389;SDS011;39288;42.970;1.524;2022-10-16T00:36:10;4.73;;;3.20;;
53389;SDS011;39288;42.970;1.524;2022-10-16T00:37:13;4.55;;;2.60;;
53389;SDS011;39288;42.970;1.524;2022-10-16T00:38:14;6.93;;;3.13;;
53389;SDS011;39288;42.970;1.524;2022-10-16T00:39:14;4.33;;;2.60;;
53389;SDS011;39288;42.970;1.524;2022-10-16T00:40:15;3.83;;;2.67;;
53389;SDS011;39288;42.970;1.524;2022-10-16T00:41:16;3.57;;;2.60;;
53389;SDS011;39288;42.970;1.524;2022-10-16T00:42:17;3.45;;;2.38;;
53389;SDS011;39288;42.970;1.524;2022-10-16T00:43:39;2.83;;;2.40;;
53389;SDS011;39288;42.970;1.524;2022-10-16T00:44:48;8.25;;;2.55;;
53389;SDS011;39288;42.970;1.524;2022-10-16T00:45:52;3.58;;;2.42;;
53389;SDS011;39288;42.970;1.524;2022-10-16T00:46:52;2.83;;;2.30;;
53389;SDS011;39288;42.970;1.524;2022-10-16T00:47:53;3.67;;;2.53;;
53389;SDS011;39288;42.970;1.524;2022-10-16T00:49:03;2.58;;;2.15;;
53389;SDS011;39288;42.970;1.524;2022-10-16T00:51:11;6.65;;;2.55;;
53389;SDS011;39288;42.970;1.524;2022-10-16T00:52:11;4.00;;;2.93;;
53389;SDS011;39288;42.970;1.524;2022-10-16T00:53:15;5.23;;;2.63;;
53389;SDS011;39288;42.970;1.524;2022-10-16T00:54:20;3.10;;;2.30;;
53389;SDS011;39288;42.970;1.524;2022-10-16T00:55:23;4.57;;;2.33;;
53389;SDS011;39288;42.970;1.524;2022-10-16T00:56:24;4.67;;;2.43;;
53389;SDS011;39288;42.970;1.524;2022-10-16T00:57:25;5.93;;;2.23;;
53389;SDS011;39288;42.970;1.524;2022-10-16T00:58:25;4.10;;;2.20;;
53389;SDS011;39288;42.970;1.524;2022-10-16T00:59:27;5.17;;;2.60;;
53389;SDS011;39288;42.970;1.524;2022-10-16T01:00:31;3.65;;;2.58;;
53389;SDS011;39288;42.970;1.524;2022-10-16T01:01:31;3.73;;;2.50;;
53389;SDS011;39288;42.970;1.524;2022-10-16T01:02:32;5.13;;;2.00;;
53389;SDS011;39288;42.970;1.524;2022-10-16T01:03:34;4.57;;;2.73;;
53389;SDS011;39288;42.970;1.524;2022-10-16T01:04:38;5.30;;;2.38;;
53389;SDS011;39288;42.970;1.524;2022-10-16T01:05:45;4.65;;;2.85;;
53389;SDS011;39288;42.970;1.524;2022-10-16T01:08:37;4.55;;;2.45;;
53389;SDS011;39288;42.970;1.524;2022-10-16T01:10:10;3.10;;;2.65;;
53389;SDS011;39288;42.970;1.524;2022-10-16T01:11:22;5.68;;;2.22;;
53389;SDS011;39288;42.970;1.524;2022-10-16T01:12:45;3.00;;;2.38;;
53389;SDS011;39288;42.970;1.524;2022-10-16T01:13:58;5.05;;;2.42;;
53389;SDS011;39288;42.970;1.524;2022-10-16T01:15:14;3.83;;;2.47;;
53389;SDS011;39288;42.970;1.524;2022-10-16T01:16:32;3.30;;;2.03;;
53389;SDS011;39288;42.970;1.524;2022-10-16T01:21:32;3.75;;;2.17;;
53389;SDS011;39288;42.970;1.524;2022-10-16T01:22:57;2.55;;;2.05;;
53389;SDS011;39288;42.970;1.524;2022-10-16T01:24:06;3.97;;;2.30;;
53389;SDS011;39288;42.970;1.524;2022-10-16T01:25:25;5.10;;;2.58;;
53389;SDS011;39288;42.970;1.524;2022-10-16T01:27:59;3.80;;;2.03;;
53389;SDS011;39288;42.970;1.524;2022-10-16T01:29:15;3.80;;;2.03;;
53389;SDS011;39288;42.970;1.524;2022-10-16T01:30:29;4.45;;;2.40;;
53389;SDS011;39288;42.970;1.524;2022-10-16T01:31:31;3.65;;;2.22;;
53389;SDS011;39288;42.970;1.524;2022-10-16T01:32:44;4.32;;;2.20;;
53389;SDS011;39288;42.970;1.524;2022-10-16T01:33:57;7.22;;;2.58;;
53389;SDS011;39288;42.970;1.524;2022-10-16T01:35:09;6.60;;;2.37;;
53389;SDS011;39288;42.970;1.524;2022-10-16T01:36:17;2.03;;;1.83;;
53389;SDS011;39288;42.970;1.524;2022-10-16T01:37:24;4.18;;;2.03;;
53389;SDS011;39288;42.970;1.524;2022-10-16T01:38:35;3.20;;;1.95;;
53389;SDS011;39288;42.970;1.524;2022-10-16T01:39:38;6.28;;;2.45;;
53389;SDS011;39288;42.970;1.524;2022-10-16T01:40:41;3.90;;;2.70;;
53389;SDS011;39288;42.970;1.524;2022-10-16T01:41:46;6.13;;;2.42;;
53389;SDS011;39288;42.970;1.524;2022-10-16T01:42:53;5.40;;;2.33;;
53389;SDS011;39288;42.970;1.524;2022-10-16T01:44:31;3.72;;;2.38;;
53389;SDS011;39288;42.970;1.524;2022-10-16T01:45:32;5.72;;;2.35;;
53389;SDS011;39288;42.970;1.524;2022-10-16T01:46:34;4.43;;;2.53;;
53389;SDS011;39288;42.970;1.524;2022-10-16T01:47:35;5.80;;;2.55;;
53389;SDS011;39288;42.970;1.524;2022-10-16T01:48:36;4.17;;;2.50;;
53389;SDS011;39288;42.970;1.524;2022-10-16T01:49:38;7.50;;;2.58;;
53389;SDS011;39288;42.970;1.524;2022-10-16T01:50:40;5.15;;;2.40;;
53389;SDS011;39288;42.970;1.524;2022-10-16T01:51:41;3.30;;;2.50;;
53389;SDS011;39288;42.970;1.524;2022-10-16T01:52:45;5.05;;;2.83;;
53389;SDS011;39288;42.970;1.524;2022-10-16T01:53:50;3.35;;;2.15;;
53389;SDS011;39288;42.970;1.524;2022-10-16T01:54:55;4.55;;;2.42;;
53389;SDS011;39288;42.970;1.524;2022-10-16T01:55:56;5.28;;;2.70;;
53389;SDS011;39288;42.970;1.524;2022-10-16T01:56:58;2.40;;;2.10;;
53389;SDS011;39288;42.970;1.524;2022-10-16T01:57:59;3.03;;;2.53;;
53389;SDS011;39288;42.970;1.524;2022-10-16T01:59:05;4.60;;;2.30;;
53389;SDS011;39288;42.970;1.524;2022-10-16T02:00:10;8.18;;;2.22;;
53389;SDS011;39288;42.970;1.524;2022-10-16T02:01:13;3.67;;;2.08;;
53389;SDS011;39288;42.970;1.524;2022-10-16T02:02:15;6.93;;;2.20;;
53389;SDS011;39288;42.970;1.524;2022-10-16T02:03:18;4.90;;;2.28;;
53389;SDS011;39288;42.970;1.524;2022-10-16T02:05:51;2.97;;;2.58;;
53389;SDS011;39288;42.970;1.524;2022-10-16T02:06:53;3.30;;;2.20;;
53389;SDS011;39288;42.970;1.524;2022-10-16T02:07:54;4.40;;;2.80;;
53389;SDS011;39288;42.970;1.524;2022-10-16T02:08:55;2.90;;;2.20;;
53389;SDS011;39288;42.970;1.524;2022-10-16T02:09:55;2.47;;;2.27;;
53389;SDS011;39288;42.970;1.524;2022-10-16T02:10:56;4.93;;;2.27;;
53389;SDS011;39288;42.970;1.524;2022-10-16T02:11:57;3.42;;;2.30;;
53389;SDS011;39288;42.970;1.524;2022-10-16T02:13:04;2.60;;;2.22;;
53389;SDS011;39288;42.970;1.524;2022-10-16T02:14:26;4.28;;;2.65;;
53389;SDS011;39288;42.970;1.524;2022-10-16T02:15:27;4.10;;;2.10;;
53389;SDS011;39288;42.970;1.524;2022-10-16T02:17:35;4.50;;;2.22;;
53389;SDS011;39288;42.970;1.524;2022-10-16T02:18:36;7.30;;;2.93;;
53389;SDS011;39288;42.970;1.524;2022-10-16T02:19:36;4.47;;;2.53;;
53389;SDS011;39288;42.970;1.524;2022-10-16T02:20:40;4.03;;;2.07;;
53389;SDS011;39288;42.970;1.524;2022-10-16T02:21:59;3.85;;;2.40;;
53389;SDS011;39288;42.970;1.524;2022-10-16T02:23:02;4.22;;;2.10;;
53389;SDS011;39288;42.970;1.524;2022-10-16T02:24:07;6.97;;;2.40;;
53389;SDS011;39288;42.970;1.524;2022-10-16T02:25:10;3.58;;;2.08;;
53389;SDS011;39288;42.970;1.524;2022-10-16T02:26:15;3.33;;;2.30;;
53389;SDS011;39288;42.970;1.524;2022-10-16T02:28:34;3.75;;;2.33;;
53389;SDS011;39288;42.970;1.524;2022-10-16T02:29:46;3.13;;;2.08;;
53389;SDS011;39288;42.970;1.524;2022-10-16T02:31:08;3.40;;;2.53;;
53389;SDS011;39288;42.970;1.524;2022-10-16T02:32:11;3.53;;;2.45;;
53389;SDS011;39288;42.970;1.524;2022-10-16T02:34:13;4.28;;;2.03;;
53389;SDS011;39288;42.970;1.524;2022-10-16T02:35:15;2.10;;;1.90;;
53389;SDS011;39288;42.970;1.524;2022-10-16T02:36:17;3.35;;;2.28;;
53389;SDS011;39288;42.970;1.524;2022-10-16T02:37:18;2.57;;;1.83;;
53389;SDS011;39288;42.970;1.524;2022-10-16T02:38:18;7.63;;;2.07;;
53389;SDS011;39288;42.970;1.524;2022-10-16T02:39:20;2.78;;;1.92;;
53389;SDS011;39288;42.970;1.524;2022-10-16T02:40:21;2.67;;;2.00;;
53389;SDS011;39288;42.970;1.524;2022-10-16T02:41:22;3.80;;;2.10;;
53389;SDS011;39288;42.970;1.524;2022-10-16T02:42:32;2.65;;;2.28;;
53389;SDS011;39288;42.970;1.524;2022-10-16T02:43:34;2.10;;;1.73;;
53389;SDS011;39288;42.970;1.524;2022-10-16T02:44:34;5.57;;;2.07;;
53389;SDS011;39288;42.970;1.524;2022-10-16T02:45:35;5.83;;;1.97;;
53389;SDS011;39288;42.970;1.524;2022-10-16T02:46:35;2.57;;;1.50;;
53389;SDS011;39288;42.970;1.524;2022-10-16T02:47:36;2.67;;;2.10;;
53389;SDS011;39288;42.970;1.524;2022-10-16T02:48:37;3.17;;;2.27;;
53389;SDS011;39288;42.970;1.524;2022-10-16T02:49:37;4.07;;;2.03;;
53389;SDS011;39288;42.970;1.524;2022-10-16T02:50:37;2.67;;;2.03;;
53389;SDS011;39288;42.970;1.524;2022-10-16T02:51:38;2.90;;;2.20;;
53389;SDS011;39288;42.970;1.524;2022-10-16T02:52:39;3.97;;;2.10;;
53389;SDS011;39288;42.970;1.524;2022-10-16T02:53:39;3.77;;;2.10;;
53389;SDS011;39288;42.970;1.524;2022-10-16T02:54:40;4.53;;;2.07;;
53389;SDS011;39288;42.970;1.524;2022-10-16T02:55:40;4.73;;;1.80;;
53389;SDS011;39288;42.970;1.524;2022-10-16T02:56:41;3.13;;;2.43;;
53389;SDS011;39288;42.970;1.524;2022-10-16T02:57:41;3.23;;;2.03;;
53389;SDS011;39288;42.970;1.524;2022-10-16T02:58:42;2.80;;;1.93;;
53389;SDS011;39288;42.970;1.524;2022-10-16T02:59:42;4.00;;;2.20;;
53389;SDS011;39288;42.970;1.524;2022-10-16T03:00:43;3.73;;;1.93;;
53389;SDS011;39288;42.970;1.524;2022-10-16T03:01:43;7.23;;;2.30;;
53389;SDS011;39288;42.970;1.524;2022-10-16T03:02:43;9.43;;;2.67;;
53389;SDS011;39288;42.970;1.524;2022-10-16T03:03:44;2.27;;;1.83;;
53389;SDS011;39288;42.970;1.524;2022-10-16T03:04:45;3.93;;;2.03;;
53389;SDS011;39288;42.970;1.524;2022-10-16T03:05:45;3.57;;;2.23;;
53389;SDS011;39288;42.970;1.524;2022-10-16T03:06:46;4.50;;;1.73;;
53389;SDS011;39288;42.970;1.524;2022-10-16T03:07:46;4.40;;;2.10;;
53389;SDS011;39288;42.970;1.524;2022-10-16T03:08:47;3.23;;;2.07;;
53389;SDS011;39288;42.970;1.524;2022-10-16T03:09:47;3.33;;;2.07;;
53389;SDS011;39288;42.970;1.524;2022-10-16T03:10:48;3.00;;;2.00;;
53389;SDS011;39288;42.970;1.524;2022-10-16T03:11:48;4.87;;;1.93;;
53389;SDS011;39288;42.970;1.524;2022-10-16T03:12:49;4.00;;;2.00;;
53389;SDS011;39288;42.970;1.524;2022-10-16T03:13:49;2.77;;;2.30;;
53389;SDS011;39288;42.970;1.524;2022-10-16T03:14:50;3.47;;;1.80;;
53389;SDS011;39288;42.970;1.524;2022-10-16T03:15:50;5.13;;;2.23;;
53389;SDS011;39288;42.970;1.524;2022-10-16T03:16:51;3.80;;;2.00;;
53389;SDS011;39288;42.970;1.524;2022-10-16T03:17:51;2.00;;;1.80;;
53389;SDS011;39288;42.970;1.524;2022-10-16T03:18:52;3.73;;;1.93;;
53389;SDS011;39288;42.970;1.524;2022-10-16T03:19:52;3.50;;;1.90;;
53389;SDS011;39288;42.970;1.524;2022-10-16T03:20:53;2.00;;;1.80;;
53389;SDS011;39288;42.970;1.524;2022-10-16T03:21:53;2.10;;;1.90;;
53389;SDS011;39288;42.970;1.524;2022-10-16T03:22:53;3.17;;;2.07;;
53389;SDS011;39288;42.970;1.524;2022-10-16T03:23:54;3.10;;;1.50;;
53389;SDS011;39288;42.970;1.524;2022-10-16T03:24:54;4.77;;;1.93;;
53389;SDS011;39288;42.970;1.524;2022-10-16T03:25:55;2.47;;;1.93;;
53389;SDS011;39288;42.970;1.524;2022-10-16T03:26:55;3.80;;;1.93;;
53389;SDS011;39288;42.970;1.524;2022-10-16T03:27:56;3.43;;;2.07;;
53389;SDS011;39288;42.970;1.524;2022-10-16T03:28:56;5.30;;;2.10;;
53389;SDS011;39288;42.970;1.524;2022-10-16T03:29:57;4.23;;;2.00;;
53389;SDS011;39288;42.970;1.524;2022-10-16T03:30:57;5.20;;;2.07;;
53389;SDS011;39288;42.970;1.524;2022-10-16T03:31:58;5.93;;;2.10;;
53389;SDS011;39288;42.970;1.524;2022-10-16T03:32:59;3.50;;;1.93;;
53389;SDS011;39288;42.970;1.524;2022-10-16T03:33:59;2.53;;;1.97;;
53389;SDS011;39288;42.970;1.524;2022-10-16T03:34:59;3.57;;;1.90;;
53389;SDS011;39288;42.970;1.524;2022-10-16T03:36:00;3.40;;;1.77;;
53389;SDS011;39288;42.970;1.524;2022-10-16T03:37:00;6.03;;;2.43;;
53389;SDS011;39288;42.970;1.524;2022-10-16T03:38:01;2.63;;;1.90;;
53389;SDS011;39288;42.970;1.524;2022-10-16T03:39:01;2.60;;;1.50;;
53389;SDS011;39288;42.970;1.524;2022-10-16T03:40:03;2.17;;;1.60;;
53389;SDS011;39288;42.970;1.524;2022-10-16T03:41:04;4.45;;;2.05;;
53389;SDS011;39288;42.970;1.524;2022-10-16T03:42:04;2.80;;;1.80;;
53389;SDS011;39288;42.970;1.524;2022-10-16T03:43:05;4.40;;;2.60;;
53389;SDS011;39288;42.970;1.524;2022-10-16T03:44:05;4.27;;;2.10;;
53389;SDS011;39288;42.970;1.524;2022-10-16T03:45:06;4.17;;;1.90;;
53389;SDS011;39288;42.970;1.524;2022-10-16T03:46:06;2.77;;;1.70;;
53389;SDS011;39288;42.970;1.524;2022-10-16T03:47:07;4.37;;;2.03;;
53389;SDS011;39288;42.970;1.524;2022-10-16T03:48:07;2.70;;;2.10;;
53389;SDS011;39288;42.970;1.524;2022-10-16T03:49:08;4.17;;;1.60;;
53389;SDS011;39288;42.970;1.524;2022-10-16T03:50:08;3.03;;;2.30;;
53389;SDS011;39288;42.970;1.524;2022-10-16T03:51:09;3.87;;;1.93;;
53389;SDS011;39288;42.970;1.524;2022-10-16T03:52:09;3.30;;;2.13;;
53389;SDS011;39288;42.970;1.524;2022-10-16T03:53:10;2.60;;;1.50;;
53389;SDS011;39288;42.970;1.524;2022-10-16T03:54:10;3.90;;;1.87;;
53389;SDS011;39288;42.970;1.524;2022-10-16T03:55:11;4.63;;;1.90;;
53389;SDS011;39288;42.970;1.524;2022-10-16T03:56:11;1.93;;;1.77;;
53389;SDS011;39288;42.970;1.524;2022-10-16T03:57:13;3.20;;;2.13;;
53389;SDS011;39288;42.970;1.524;2022-10-16T03:58:13;5.87;;;2.20;;
53389;SDS011;39288;42.970;1.524;2022-10-16T03:59:14;2.13;;;1.70;;
53389;SDS011;39288;42.970;1.524;2022-10-16T04:00:14;2.23;;;1.80;;
53389;SDS011;39288;42.970;1.524;2022-10-16T04:01:15;2.10;;;1.60;;
53389;SDS011;39288;42.970;1.524;2022-10-16T04:02:15;3.70;;;1.93;;
53389;SDS011;39288;42.970;1.524;2022-10-16T04:03:16;3.77;;;1.63;;
53389;SDS011;39288;42.970;1.524;2022-10-16T04:04:18;3.67;;;1.80;;
53389;SDS011;39288;42.970;1.524;2022-10-16T04:05:19;4.87;;;1.50;;
53389;SDS011;39288;42.970;1.524;2022-10-16T04:06:20;4.28;;;1.80;;
53389;SDS011;39288;42.970;1.524;2022-10-16T04:07:21;3.30;;;1.40;;
53389;SDS011;39288;42.970;1.524;2022-10-16T04:08:21;3.43;;;1.50;;
53389;SDS011;39288;42.970;1.524;2022-10-16T04:09:22;2.63;;;1.70;;
53389;SDS011;39288;42.970;1.524;2022-10-16T04:10:22;5.00;;;1.77;;
53389;SDS011;39288;42.970;1.524;2022-10-16T04:11:23;2.00;;;1.50;;
53389;SDS011;39288;42.970;1.524;2022-10-16T04:12:23;3.30;;;1.77;;
53389;SDS011;39288;42.970;1.524;2022-10-16T04:13:24;8.07;;;2.07;;
53389;SDS011;39288;42.970;1.524;2022-10-16T04:14:24;4.57;;;1.50;;
53389;SDS011;39288;42.970;1.524;2022-10-16T04:15:25;1.73;;;1.43;;
53389;SDS011;39288;42.970;1.524;2022-10-16T04:16:25;2.60;;;1.70;;
53389;SDS011;39288;42.970;1.524;2022-10-16T04:17:26;5.53;;;2.33;;
53389;SDS011;39288;42.970;1.524;2022-10-16T04:18:26;3.90;;;1.73;;
53389;SDS011;39288;42.970;1.524;2022-10-16T04:19:27;3.37;;;1.97;;
53389;SDS011;39288;42.970;1.524;2022-10-16T04:20:27;2.70;;;1.67;;
53389;SDS011;39288;42.970;1.524;2022-10-16T04:21:28;3.00;;;1.80;;
53389;SDS011;39288;42.970;1.524;2022-10-16T04:22:28;2.27;;;1.70;;
53389;SDS011;39288;42.970;1.524;2022-10-16T04:23:29;2.33;;;1.57;;
53389;SDS011;39288;42.970;1.524;2022-10-16T04:24:30;3.80;;;1.80;;
53389;SDS011;39288;42.970;1.524;2022-10-16T04:25:30;1.90;;;1.60;;
53389;SDS011;39288;42.970;1.524;2022-10-16T04:26:30;4.73;;;2.07;;
53389;SDS011;39288;42.970;1.524;2022-10-16T04:27:31;2.83;;;2.00;;
53389;SDS011;39288;42.970;1.524;2022-10-16T04:28:32;5.13;;;1.47;;
53389;SDS011;39288;42.970;1.524;2022-10-16T04:29:32;3.53;;;1.80;;
53389;SDS011;39288;42.970;1.524;2022-10-16T04:30:33;2.10;;;1.80;;
53389;SDS011;39288;42.970;1.524;2022-10-16T04:31:33;2.20;;;1.67;;
53389;SDS011;39288;42.970;1.524;2022-10-16T04:32:34;2.70;;;1.63;;
53389;SDS011;39288;42.970;1.524;2022-10-16T04:33:34;3.10;;;1.63;;
53389;SDS011;39288;42.970;1.524;2022-10-16T04:34:35;2.83;;;2.43;;
53389;SDS011;39288;42.970;1.524;2022-10-16T04:35:36;2.55;;;1.70;;
53389;SDS011;39288;42.970;1.524;2022-10-16T04:36:36;3.83;;;1.70;;
53389;SDS011;39288;42.970;1.524;2022-10-16T04:37:37;2.90;;;2.00;;
53389;SDS011;39288;42.970;1.524;2022-10-16T04:38:37;5.57;;;1.80;;
53389;SDS011;39288;42.970;1.524;2022-10-16T04:39:39;3.67;;;1.90;;
53389;SDS011;39288;42.970;1.524;2022-10-16T04:40:41;3.40;;;1.80;;
53389;SDS011;39288;42.970;1.524;2022-10-16T04:41:42;6.38;;;1.90;;
53389;SDS011;39288;42.970;1.524;2022-10-16T04:42:42;4.67;;;1.90;;
53389;SDS011;39288;42.970;1.524;2022-10-16T04:43:43;3.87;;;2.07;;
53389;SDS011;39288;42.970;1.524;2022-10-16T04:44:43;2.87;;;1.63;;
53389;SDS011;39288;42.970;1.524;2022-10-16T04:45:44;1.73;;;1.63;;
53389;SDS011;39288;42.970;1.524;2022-10-16T04:46:44;4.53;;;2.13;;
53389;SDS011;39288;42.970;1.524;2022-10-16T04:47:45;2.33;;;1.60;;
53389;SDS011;39288;42.970;1.524;2022-10-16T04:48:45;2.40;;;1.80;;
53389;SDS011;39288;42.970;1.524;2022-10-16T04:49:46;3.00;;;2.33;;
53389;SDS011;39288;42.970;1.524;2022-10-16T04:50:47;4.00;;;1.87;;
53389;SDS011;39288;42.970;1.524;2022-10-16T04:51:48;5.63;;;1.87;;
53389;SDS011;39288;42.970;1.524;2022-10-16T04:52:48;2.93;;;1.60;;
53389;SDS011;39288;42.970;1.524;2022-10-16T04:53:49;4.23;;;2.03;;
53389;SDS011;39288;42.970;1.524;2022-10-16T04:54:49;1.70;;;1.47;;
53389;SDS011;39288;42.970;1.524;2022-10-16T04:55:50;3.22;;;1.90;;
53389;SDS011;39288;42.970;1.524;2022-10-16T04:56:51;2.33;;;1.73;;
53389;SDS011;39288;42.970;1.524;2022-10-16T04:57:52;2.70;;;1.90;;
53389;SDS011;39288;42.970;1.524;2022-10-16T04:58:52;3.17;;;1.70;;
53389;SDS011;39288;42.970;1.524;2022-10-16T04:59:53;6.23;;;1.70;;
53389;SDS011;39288;42.970;1.524;2022-10-16T05:00:53;2.07;;;1.77;;
53389;SDS011;39288;42.970;1.524;2022-10-16T05:01:54;3.33;;;1.60;;
53389;SDS011;39288;42.970;1.524;2022-10-16T05:02:54;2.73;;;1.67;;
53389;SDS011;39288;42.970;1.524;2022-10-16T05:03:54;1.73;;;1.40;;
53389;SDS011;39288;42.970;1.524;2022-10-16T05:04:55;4.20;;;2.13;;
53389;SDS011;39288;42.970;1.524;2022-10-16T05:05:55;4.77;;;1.80;;
53389;SDS011;39288;42.970;1.524;2022-10-16T05:06:56;3.17;;;1.60;;
53389;SDS011;39288;42.970;1.524;2022-10-16T05:07:57;2.50;;;1.77;;
53389;SDS011;39288;42.970;1.524;2022-10-16T05:08:57;2.83;;;1.83;;
53389;SDS011;39288;42.970;1.524;2022-10-16T05:09:58;2.13;;;1.40;;
53389;SDS011;39288;42.970;1.524;2022-10-16T05:10:58;3.17;;;1.77;;
53389;SDS011;39288;42.970;1.524;2022-10-16T05:11:59;3.27;;;1.83;;
53389;SDS011;39288;42.970;1.524;2022-10-16T05:12:59;2.10;;;1.60;;
53389;SDS011;39288;42.970;1.524;2022-10-16T05:14:00;3.67;;;1.77;;
53389;SDS011;39288;42.970;1.524;2022-10-16T05:15:01;3.45;;;1.88;;
53389;SDS011;39288;42.970;1.524;2022-10-16T05:16:01;2.60;;;1.70;;
53389;SDS011;39288;42.970;1.524;2022-10-16T05:17:02;5.30;;;2.20;;
53389;SDS011;39288;42.970;1.524;2022-10-16T05:18:02;4.23;;;2.00;;
53389;SDS011;39288;42.970;1.524;2022-10-16T05:19:03;1.60;;;1.50;;
53389;SDS011;39288;42.970;1.524;2022-10-16T05:20:04;2.00;;;1.80;;
53389;SDS011;39288;42.970;1.524;2022-10-16T05:21:05;3.65;;;1.90;;
53389;SDS011;39288;42.970;1.524;2022-10-16T05:22:05;5.70;;;1.70;;
53389;SDS011;39288;42.970;1.524;2022-10-16T05:23:06;3.63;;;2.00;;
53389;SDS011;39288;42.970;1.524;2022-10-16T05:24:06;2.00;;;1.77;;
53389;SDS011;39288;42.970;1.524;2022-10-16T05:25:07;3.47;;;1.70;;
53389;SDS011;39288;42.970;1.524;2022-10-16T05:26:08;3.20;;;1.80;;
53389;SDS011;39288;42.970;1.524;2022-10-16T05:27:08;2.10;;;1.63;;
53389;SDS011;39288;42.970;1.524;2022-10-16T05:28:08;2.90;;;1.40;;
53389;SDS011;39288;42.970;1.524;2022-10-16T05:29:09;2.80;;;1.73;;
53389;SDS011;39288;42.970;1.524;2022-10-16T05:30:10;4.70;;;1.60;;
53389;SDS011;39288;42.970;1.524;2022-10-16T05:31:10;2.33;;;2.07;;
53389;SDS011;39288;42.970;1.524;2022-10-16T05:32:11;1.77;;;1.60;;
53389;SDS011;39288;42.970;1.524;2022-10-16T05:33:11;10.73;;;2.00;;
53389;SDS011;39288;42.970;1.524;2022-10-16T05:34:12;4.23;;;1.80;;
53389;SDS011;39288;42.970;1.524;2022-10-16T05:35:12;4.07;;;1.83;;
53389;SDS011;39288;42.970;1.524;2022-10-16T05:36:13;4.20;;;2.23;;
53389;SDS011;39288;42.970;1.524;2022-10-16T05:37:13;2.47;;;1.83;;
53389;SDS011;39288;42.970;1.524;2022-10-16T05:38:14;3.27;;;1.73;;
53389;SDS011;39288;42.970;1.524;2022-10-16T05:39:15;4.03;;;1.90;;
53389;SDS011;39288;42.970;1.524;2022-10-16T05:40:16;4.75;;;2.22;;
53389;SDS011;39288;42.970;1.524;2022-10-16T05:41:16;4.47;;;2.10;;
53389;SDS011;39288;42.970;1.524;2022-10-16T05:42:21;6.20;;;2.25;;
53389;SDS011;39288;42.970;1.524;2022-10-16T05:43:22;3.17;;;1.83;;
53389;SDS011;39288;42.970;1.524;2022-10-16T05:44:22;3.97;;;2.03;;
53389;SDS011;39288;42.970;1.524;2022-10-16T05:45:23;2.40;;;1.97;;
53389;SDS011;39288;42.970;1.524;2022-10-16T05:46:23;2.60;;;1.60;;
53389;SDS011;39288;42.970;1.524;2022-10-16T05:47:24;2.27;;;1.70;;
53389;SDS011;39288;42.970;1.524;2022-10-16T05:48:25;2.17;;;1.80;;
53389;SDS011;39288;42.970;1.524;2022-10-16T05:49:25;3.67;;;2.10;;
53389;SDS011;39288;42.970;1.524;2022-10-16T05:50:26;3.03;;;1.87;;
53389;SDS011;39288;42.970;1.524;2022-10-16T05:51:27;7.38;;;2.00;;
53389;SDS011;39288;42.970;1.524;2022-10-16T05:52:27;6.57;;;2.37;;
53389;SDS011;39288;42.970;1.524;2022-10-16T05:53:29;5.53;;;1.70;;
53389;SDS011;39288;42.970;1.524;2022-10-16T05:54:30;4.28;;;1.67;;
53389;SDS011;39288;42.970;1.524;2022-10-16T05:55:31;1.80;;;1.70;;
53389;SDS011;39288;42.970;1.524;2022-10-16T05:56:31;6.57;;;1.87;;
53389;SDS011;39288;42.970;1.524;2022-10-16T05:57:32;3.67;;;2.30;;
53389;SDS011;39288;42.970;1.524;2022-10-16T05:58:35;2.80;;;1.60;;
53389;SDS011;39288;42.970;1.524;2022-10-16T05:59:36;6.38;;;1.90;;
53389;SDS011;39288;42.970;1.524;2022-10-16T06:00:36;1.73;;;1.60;;
53389;SDS011;39288;42.970;1.524;2022-10-16T06:01:37;3.20;;;1.90;;
53389;SDS011;39288;42.970;1.524;2022-10-16T06:02:38;4.60;;;1.70;;
53389;SDS011;39288;42.970;1.524;2022-10-16T06:03:38;2.37;;;1.90;;
53389;SDS011;39288;42.970;1.524;2022-10-16T06:04:40;2.50;;;2.10;;
53389;SDS011;39288;42.970;1.524;2022-10-16T06:05:40;3.03;;;1.37;;
53389;SDS011;39288;42.970;1.524;2022-10-16T06:06:43;2.65;;;2.20;;
53389;SDS011;39288;42.970;1.524;2022-10-16T06:07:43;1.80;;;1.50;;
53389;SDS011;39288;42.970;1.524;2022-10-16T06:08:45;3.77;;;2.33;;
53389;SDS011;39288;42.970;1.524;2022-10-16T06:10:59;5.45;;;2.45;;
53389;SDS011;39288;42.970;1.524;2022-10-16T06:12:04;4.10;;;2.05;;
53389;SDS011;39288;42.970;1.524;2022-10-16T06:13:05;2.40;;;2.00;;
53389;SDS011;39288;42.970;1.524;2022-10-16T06:14:05;3.30;;;1.90;;
53389;SDS011;39288;42.970;1.524;2022-10-16T06:15:08;2.38;;;1.55;;
53389;SDS011;39288;42.970;1.524;2022-10-16T06:16:10;3.60;;;1.90;;
53389;SDS011;39288;42.970;1.524;2022-10-16T06:17:10;3.70;;;1.98;;
53389;SDS011;39288;42.970;1.524;2022-10-16T06:18:11;2.93;;;1.90;;
53389;SDS011;39288;42.970;1.524;2022-10-16T06:19:11;2.97;;;1.67;;
53389;SDS011;39288;42.970;1.524;2022-10-16T06:20:12;2.00;;;1.70;;
53389;SDS011;39288;42.970;1.524;2022-10-16T06:21:19;3.60;;;1.77;;
53389;SDS011;39288;42.970;1.524;2022-10-16T06:22:21;1.98;;;1.75;;
53389;SDS011;39288;42.970;1.524;2022-10-16T06:23:21;3.87;;;1.60;;
53389;SDS011;39288;42.970;1.524;2022-10-16T06:24:22;7.25;;;2.08;;
53389;SDS011;39288;42.970;1.524;2022-10-16T06:25:23;2.43;;;1.87;;
53389;SDS011;39288;42.970;1.524;2022-10-16T06:26:27;6.20;;;2.07;;
53389;SDS011;39288;42.970;1.524;2022-10-16T06:27:28;2.80;;;2.10;;
53389;SDS011;39288;42.970;1.524;2022-10-16T06:28:29;4.70;;;1.90;;
53389;SDS011;39288;42.970;1.524;2022-10-16T06:29:29;6.00;;;2.07;;